createdAt,value
2019-04-03T00:00:49.319Z,0.00
2019-04-03T00:01:49.312Z,0.00
2019-04-03T00:02:49.343Z,0.00
2019-04-03T00:03:49.375Z,0.00
2019-04-03T00:04:49.406Z,0.00
2019-04-03T00:05:49.439Z,0.00
2019-04-03T00:06:49.470Z,0.00
2019-04-03T00:07:49.569Z,0.00
2019-04-03T00:08:49.532Z,0.00
2019-04-03T00:09:49.564Z,0.00
2019-04-03T00:10:49.596Z,0.00
2019-04-03T00:11:49.628Z,0.00
2019-04-03T00:12:49.661Z,0.00
2019-04-03T00:13:49.690Z,0.00
2019-04-03T00:14:49.721Z,0.00
2019-04-03T00:15:49.752Z,0.00
2019-04-03T00:16:49.787Z,0.00
2019-04-03T00:17:49.816Z,0.00
2019-04-03T00:18:49.846Z,0.00
2019-04-03T00:19:49.876Z,0.00
2019-04-03T00:20:49.909Z,0.00
2019-04-03T00:21:50.664Z,0.00
2019-04-03T00:22:52.024Z,0.00
2019-04-03T00:23:52.175Z,0.00
2019-04-03T00:24:51.997Z,0.00
2019-04-03T00:25:52.010Z,0.00
2019-04-03T00:26:51.870Z,0.00
2019-04-03T00:27:52.010Z,0.00
2019-04-03T00:28:50.719Z,0.00
2019-04-03T00:29:50.518Z,0.00
2019-04-03T00:30:52.440Z,0.00
2019-04-03T00:31:53.083Z,0.00
2019-04-03T00:32:50.302Z,0.00
2019-04-03T00:33:52.929Z,0.00
2019-04-03T00:34:50.364Z,0.00
2019-04-03T00:35:53.037Z,0.00
2019-04-03T00:36:52.908Z,0.00
2019-04-03T00:37:52.980Z,0.00
2019-04-03T00:38:50.471Z,0.00
2019-04-03T00:39:50.501Z,0.00
2019-04-03T00:40:50.533Z,0.00
2019-04-03T00:41:50.564Z,0.00
2019-04-03T00:42:50.595Z,0.00
2019-04-03T00:43:50.633Z,0.00
2019-04-03T00:44:50.656Z,0.00
2019-04-03T00:45:50.687Z,0.00
2019-04-03T00:46:50.718Z,0.00
2019-04-03T00:47:50.748Z,0.00
2019-04-03T00:48:50.846Z,0.00
2019-04-03T00:49:50.811Z,0.00
2019-04-03T00:50:50.842Z,0.00
2019-04-03T00:51:50.873Z,0.00
2019-04-03T00:52:50.905Z,0.00
2019-04-03T00:53:50.935Z,0.00
2019-04-03T00:54:50.967Z,0.00
2019-04-03T00:55:50.998Z,0.00
2019-04-03T00:56:51.027Z,0.00
2019-04-03T00:57:51.058Z,0.00
2019-04-03T00:58:51.088Z,0.00
2019-04-03T00:59:51.122Z,0.00
2019-04-03T01:00:51.150Z,0.00
2019-04-03T01:01:51.183Z,0.00
2019-04-03T01:02:51.212Z,0.00
2019-04-03T01:03:51.314Z,0.00
2019-04-03T01:04:51.274Z,0.00
2019-04-03T01:05:51.305Z,0.00
2019-04-03T01:06:51.334Z,0.00
2019-04-03T01:07:51.367Z,0.00
2019-04-03T01:08:51.585Z,0.00
2019-04-03T01:09:51.513Z,0.00
2019-04-03T01:10:51.494Z,0.00
2019-04-03T01:11:51.490Z,0.00
2019-04-03T01:12:51.578Z,0.00
2019-04-03T01:13:51.552Z,0.00
2019-04-03T01:14:51.701Z,0.00
2019-04-03T01:15:51.613Z,0.00
2019-04-03T01:16:51.643Z,0.00
2019-04-03T01:17:51.675Z,0.00
2019-04-03T01:18:51.774Z,0.00
2019-04-03T01:19:51.735Z,0.00
2019-04-03T01:20:51.769Z,0.00
2019-04-03T01:21:51.799Z,0.00
2019-04-03T01:22:51.829Z,0.00
2019-04-03T01:23:51.858Z,0.00
2019-04-03T01:24:51.889Z,0.00
2019-04-03T01:25:51.920Z,0.00
2019-04-03T01:26:51.950Z,0.00
2019-04-03T01:27:51.983Z,0.00
2019-04-03T01:28:52.014Z,0.00
2019-04-03T01:29:52.044Z,0.00
2019-04-03T01:30:52.199Z,0.00
2019-04-03T01:31:52.104Z,0.00
2019-04-03T01:32:52.136Z,0.00
2019-04-03T01:33:52.167Z,0.00
2019-04-03T01:34:52.196Z,0.00
2019-04-03T01:35:52.227Z,0.00
2019-04-03T01:36:52.376Z,0.00
2019-04-03T01:37:52.288Z,0.00
2019-04-03T01:38:52.318Z,0.00
2019-04-03T01:39:52.351Z,0.00
2019-04-03T01:40:52.380Z,0.00
2019-04-03T01:41:52.422Z,0.00
2019-04-03T01:42:53.317Z,0.00
2019-04-03T01:43:53.846Z,0.00
2019-04-03T01:44:55.127Z,0.00
2019-04-03T01:45:52.539Z,0.00
2019-04-03T01:46:52.564Z,0.00
2019-04-03T01:47:52.596Z,0.00
2019-04-03T01:48:52.627Z,0.00
2019-04-03T01:49:52.657Z,0.00
2019-04-03T01:50:52.688Z,0.00
2019-04-03T01:51:52.719Z,0.00
2019-04-03T01:52:52.748Z,0.00
2019-04-03T01:53:52.778Z,0.00
2019-04-03T01:54:52.809Z,0.00
2019-04-03T01:55:52.922Z,0.00
2019-04-03T01:56:52.869Z,0.00
2019-04-03T01:57:52.900Z,0.00
2019-04-03T01:58:52.930Z,0.00
2019-04-03T01:59:52.961Z,0.00
2019-04-03T02:00:53.003Z,0.00
2019-04-03T02:01:53.023Z,0.00
2019-04-03T02:02:53.052Z,0.00
2019-04-03T02:03:53.083Z,0.00
2019-04-03T02:04:53.114Z,0.00
2019-04-03T02:05:53.148Z,0.00
2019-04-03T02:06:53.209Z,0.00
2019-04-03T02:07:53.207Z,0.00
2019-04-03T02:08:53.236Z,0.00
2019-04-03T02:09:53.345Z,0.00
2019-04-03T02:10:53.347Z,0.00
2019-04-03T02:11:53.329Z,0.00
2019-04-03T02:12:53.360Z,0.00
2019-04-03T02:13:53.474Z,0.00
2019-04-03T02:14:53.420Z,0.00
2019-04-03T02:15:53.660Z,0.00
2019-04-03T02:16:54.057Z,0.00
2019-04-03T02:17:54.975Z,0.00
2019-04-03T02:18:55.264Z,0.00
2019-04-03T02:19:56.015Z,0.00
2019-04-03T02:20:53.602Z,0.00
2019-04-03T02:21:53.837Z,0.00
2019-04-03T02:22:53.664Z,0.00
2019-04-03T02:23:53.694Z,0.00
2019-04-03T02:24:53.726Z,0.00
2019-04-03T02:25:53.756Z,0.00
2019-04-03T02:26:53.801Z,0.00
2019-04-03T02:27:55.716Z,0.00
2019-04-03T02:28:53.851Z,0.00
2019-04-03T02:29:53.936Z,0.00
2019-04-03T02:30:53.909Z,0.00
2019-04-03T02:31:53.986Z,0.00
2019-04-03T02:32:56.607Z,0.00
2019-04-03T02:33:54.008Z,0.00
2019-04-03T02:34:54.036Z,0.00
2019-04-03T02:35:54.061Z,0.00
2019-04-03T02:36:54.465Z,0.00
2019-04-03T02:37:54.123Z,0.00
2019-04-03T02:38:54.833Z,0.00
2019-04-03T02:39:54.235Z,0.00
2019-04-03T02:40:54.213Z,0.00
2019-04-03T02:41:54.246Z,0.00
2019-04-03T02:42:54.415Z,0.00
2019-04-03T02:43:54.316Z,0.00
2019-04-03T02:44:54.345Z,0.00
2019-04-03T02:45:56.032Z,0.00
2019-04-03T02:46:54.395Z,0.00
2019-04-03T02:47:54.432Z,0.00
2019-04-03T02:48:54.647Z,0.00
2019-04-03T02:49:54.516Z,0.00
2019-04-03T02:50:54.518Z,0.00
2019-04-03T02:51:54.550Z,0.00
2019-04-03T02:52:58.264Z,0.00
2019-04-03T02:53:54.608Z,0.00
2019-04-03T02:54:54.639Z,0.00
2019-04-03T02:55:54.671Z,0.00
2019-04-03T02:56:54.715Z,0.00
2019-04-03T02:57:54.730Z,0.00
2019-04-03T02:58:55.173Z,0.00
2019-04-03T02:59:57.858Z,0.00
2019-04-03T03:00:54.830Z,0.00
2019-04-03T03:01:54.963Z,0.00
2019-04-03T03:02:54.998Z,0.00
2019-04-03T03:03:55.148Z,0.00
2019-04-03T03:04:55.630Z,0.00
2019-04-03T03:05:55.242Z,0.00
2019-04-03T03:06:55.003Z,0.00
2019-04-03T03:07:55.164Z,0.00
2019-04-03T03:08:55.330Z,0.00
2019-04-03T03:09:55.093Z,0.00
2019-04-03T03:10:55.206Z,0.00
2019-04-03T03:11:56.387Z,0.00
2019-04-03T03:12:55.412Z,0.00
2019-04-03T03:13:55.454Z,0.00
2019-04-03T03:14:55.242Z,0.00
2019-04-03T03:15:55.276Z,0.00
2019-04-03T03:16:55.651Z,0.00
2019-04-03T03:17:56.130Z,0.00
2019-04-03T03:18:57.553Z,0.00
2019-04-03T03:19:55.395Z,0.00
2019-04-03T03:20:55.425Z,0.00
2019-04-03T03:21:55.454Z,0.00
2019-04-03T03:22:55.485Z,0.00
2019-04-03T03:23:56.674Z,0.00
2019-04-03T03:24:55.562Z,0.00
2019-04-03T03:25:55.575Z,0.00
2019-04-03T03:26:55.610Z,0.00
2019-04-03T03:27:55.635Z,0.00
2019-04-03T03:28:55.690Z,0.00
2019-04-03T03:29:58.454Z,0.00
2019-04-03T03:31:02.058Z,0.00
2019-04-03T03:32:07.988Z,0.00
2019-04-03T03:33:21.794Z,0.00
2019-04-03T03:34:00.293Z,0.00
2019-04-03T03:35:07.428Z,0.00
2019-04-03T03:35:56.281Z,0.00
2019-04-03T03:37:00.092Z,0.00
2019-04-03T03:37:56.257Z,0.00
2019-04-03T03:38:55.971Z,0.00
2019-04-03T03:39:55.995Z,0.00
2019-04-03T03:40:56.025Z,0.00
2019-04-03T03:41:57.499Z,0.00
2019-04-03T03:42:56.160Z,0.00
2019-04-03T03:43:56.143Z,0.00
2019-04-03T03:44:56.435Z,0.00
2019-04-03T03:45:56.176Z,0.00
2019-04-03T03:46:59.830Z,0.00
2019-04-03T03:47:56.240Z,0.00
2019-04-03T03:48:56.297Z,0.00
2019-04-03T03:49:56.297Z,0.00
2019-04-03T03:50:58.441Z,0.00
2019-04-03T03:51:56.355Z,0.00
2019-04-03T03:52:56.387Z,0.00
2019-04-03T03:53:56.416Z,0.00
2019-04-03T03:54:56.445Z,0.00
2019-04-03T03:55:58.408Z,0.00
2019-04-03T03:56:56.506Z,0.00
2019-04-03T03:57:56.535Z,0.00
2019-04-03T03:58:56.566Z,0.00
2019-04-03T03:59:56.770Z,0.00
2019-04-03T04:00:59.589Z,0.00
2019-04-03T04:01:56.657Z,0.00
2019-04-03T04:02:56.703Z,0.00
2019-04-03T04:03:56.715Z,0.00
2019-04-03T04:04:56.994Z,0.00
2019-04-03T04:05:57.009Z,0.00
2019-04-03T04:06:57.508Z,0.00
2019-04-03T04:07:56.854Z,0.00
2019-04-03T04:08:56.935Z,0.00
2019-04-03T04:09:56.896Z,0.00
2019-04-03T04:10:59.562Z,0.00
2019-04-03T04:11:56.954Z,0.00
2019-04-03T04:12:56.987Z,0.00
2019-04-03T04:13:57.021Z,0.00
2019-04-03T04:14:57.663Z,0.00
2019-04-03T04:15:57.396Z,0.00
2019-04-03T04:16:57.141Z,0.00
2019-04-03T04:17:57.136Z,0.00
2019-04-03T04:18:58.168Z,0.00
2019-04-03T04:19:57.197Z,0.00
2019-04-03T04:20:57.229Z,0.00
2019-04-03T04:21:57.475Z,0.00
2019-04-03T04:22:57.372Z,0.00
2019-04-03T04:23:57.740Z,0.00
2019-04-03T04:24:59.558Z,0.00
2019-04-03T04:25:57.376Z,0.00
2019-04-03T04:26:57.405Z,0.00
2019-04-03T04:27:57.435Z,0.00
2019-04-03T04:28:57.464Z,0.00
2019-04-03T04:29:57.495Z,0.00
2019-04-03T04:30:57.524Z,0.00
2019-04-03T04:31:57.555Z,0.00
2019-04-03T04:32:59.896Z,0.00
2019-04-03T04:33:57.618Z,0.00
2019-04-03T04:34:57.645Z,0.00
2019-04-03T04:35:57.674Z,0.00
2019-04-03T04:36:57.757Z,0.00
2019-04-03T04:37:57.736Z,0.00
2019-04-03T04:38:58.491Z,0.00
2019-04-03T04:39:59.599Z,0.00
2019-04-03T04:40:58.008Z,0.00
2019-04-03T04:41:58.007Z,0.00
2019-04-03T04:42:57.965Z,0.00
2019-04-03T04:43:57.914Z,0.00
2019-04-03T04:44:57.945Z,0.00
2019-04-03T04:45:57.975Z,0.00
2019-04-03T04:46:58.163Z,0.00
2019-04-03T04:47:58.036Z,0.00
2019-04-03T04:48:58.066Z,0.00
2019-04-03T04:49:58.097Z,0.00
2019-04-03T04:50:58.262Z,0.00
2019-04-03T04:51:58.157Z,0.00
2019-04-03T04:52:58.739Z,0.00
2019-04-03T04:53:59.505Z,0.00
2019-04-03T04:54:59.848Z,0.00
2019-04-03T04:55:58.278Z,0.00
2019-04-03T04:56:58.356Z,0.00
2019-04-03T04:57:58.335Z,0.00
2019-04-03T04:58:58.365Z,0.00
2019-04-03T04:59:58.587Z,0.00
2019-04-03T05:00:58.426Z,0.00
2019-04-03T05:01:58.496Z,0.00
2019-04-03T05:03:00.908Z,0.00
2019-04-03T05:03:58.515Z,0.00
2019-04-03T05:04:58.676Z,0.00
2019-04-03T05:05:58.828Z,0.00
2019-04-03T05:07:00.120Z,0.00
2019-04-03T05:08:01.366Z,0.00
2019-04-03T05:08:58.666Z,0.00
2019-04-03T05:09:58.697Z,0.00
2019-04-03T05:10:58.726Z,0.00
2019-04-03T05:11:58.757Z,0.00
2019-04-03T05:12:58.785Z,0.00
2019-04-03T05:13:58.815Z,0.00
2019-04-03T05:14:58.845Z,0.00
2019-04-03T05:15:59.070Z,0.00
2019-04-03T05:16:59.050Z,0.00
2019-04-03T05:17:59.015Z,0.00
2019-04-03T05:19:09.025Z,0.00
2019-04-03T05:19:58.994Z,0.00
2019-04-03T05:20:59.027Z,0.00
2019-04-03T05:21:59.055Z,0.00
2019-04-03T05:22:59.316Z,0.00
2019-04-03T05:24:11.014Z,0.00
2019-04-03T05:24:59.976Z,0.00
2019-04-03T05:26:00.850Z,0.00
2019-04-03T05:26:59.217Z,0.00
2019-04-03T05:27:59.241Z,0.00
2019-04-03T05:28:59.265Z,0.00
2019-04-03T05:29:59.295Z,0.00
2019-04-03T05:30:59.330Z,0.00
2019-04-03T05:31:59.355Z,0.00
2019-04-03T05:32:59.657Z,0.00
2019-04-03T05:33:59.417Z,0.00
2019-04-03T05:34:59.445Z,0.00
2019-04-03T05:35:59.474Z,0.00
2019-04-03T05:36:59.507Z,5.63
2019-04-03T05:37:59.534Z,5.63
2019-04-03T05:39:02.444Z,5.63
2019-04-03T05:39:59.595Z,5.63
2019-04-03T05:40:59.624Z,5.63
2019-04-03T05:41:59.920Z,11.25
2019-04-03T05:43:00.271Z,11.25
2019-04-03T05:44:01.465Z,5.63
2019-04-03T05:44:59.744Z,5.63
2019-04-03T05:45:59.834Z,5.63
2019-04-03T05:47:00.032Z,5.63
2019-04-03T05:48:00.119Z,5.63
2019-04-03T05:49:00.128Z,5.63
2019-04-03T05:50:00.109Z,5.63
2019-04-03T05:50:59.925Z,5.63
2019-04-03T05:51:59.953Z,5.63
2019-04-03T05:53:01.279Z,5.63
2019-04-03T05:54:00.012Z,11.25
2019-04-03T05:55:00.042Z,11.25
2019-04-03T05:56:00.074Z,11.25
2019-04-03T05:57:00.102Z,11.25
2019-04-03T05:58:00.136Z,11.25
2019-04-03T05:59:02.289Z,11.25
2019-04-03T06:00:02.086Z,11.25
2019-04-03T06:01:05.609Z,16.88
2019-04-03T06:02:00.253Z,16.88
2019-04-03T06:03:00.283Z,16.88
2019-04-03T06:04:00.485Z,16.88
2019-04-03T06:05:00.434Z,22.50
2019-04-03T06:06:00.372Z,22.50
2019-04-03T06:07:00.402Z,22.50
2019-04-03T06:08:00.555Z,22.50
2019-04-03T06:09:00.465Z,28.13
2019-04-03T06:10:00.504Z,33.75
2019-04-03T06:11:03.499Z,33.75
2019-04-03T06:12:00.553Z,39.38
2019-04-03T06:13:00.583Z,45.00
2019-04-03T06:14:00.695Z,45.00
2019-04-03T06:15:00.889Z,45.00
2019-04-03T06:16:00.674Z,45.00
2019-04-03T06:17:00.706Z,45.00
2019-04-03T06:18:00.733Z,56.25
2019-04-03T06:19:00.761Z,61.88
2019-04-03T06:20:01.005Z,67.50
2019-04-03T06:21:00.823Z,73.13
2019-04-03T06:22:00.853Z,78.75
2019-04-03T06:23:00.934Z,84.38
2019-04-03T06:24:00.913Z,84.38
2019-04-03T06:25:01.036Z,78.75
2019-04-03T06:26:01.779Z,73.13
2019-04-03T06:27:01.004Z,67.50
2019-04-03T06:28:01.033Z,61.88
2019-04-03T06:29:01.063Z,61.88
2019-04-03T06:30:01.094Z,61.88
2019-04-03T06:31:01.123Z,56.25
2019-04-03T06:32:01.155Z,56.25
2019-04-03T06:33:02.147Z,56.25
2019-04-03T06:34:01.216Z,56.25
2019-04-03T06:35:01.245Z,56.25
2019-04-03T06:36:01.275Z,50.63
2019-04-03T06:37:01.444Z,45.00
2019-04-03T06:38:01.343Z,45.00
2019-04-03T06:39:01.366Z,39.38
2019-04-03T06:40:03.293Z,39.38
2019-04-03T06:41:01.427Z,45.00
2019-04-03T06:42:01.459Z,50.63
2019-04-03T06:43:01.487Z,56.25
2019-04-03T06:44:01.518Z,61.88
2019-04-03T06:45:01.552Z,67.50
2019-04-03T06:46:01.579Z,67.50
2019-04-03T06:47:02.022Z,67.50
2019-04-03T06:48:04.230Z,67.50
2019-04-03T06:49:01.669Z,67.50
2019-04-03T06:50:01.698Z,61.88
2019-04-03T06:51:01.729Z,67.50
2019-04-03T06:52:01.760Z,67.50
2019-04-03T06:53:01.790Z,67.50
2019-04-03T06:54:01.820Z,67.50
2019-04-03T06:55:03.297Z,73.13
2019-04-03T06:56:01.881Z,78.75
2019-04-03T06:57:02.129Z,78.75
2019-04-03T06:58:01.942Z,78.75
2019-04-03T06:59:01.973Z,78.75
2019-04-03T07:00:02.262Z,78.75
2019-04-03T07:01:02.039Z,73.13
2019-04-03T07:02:02.070Z,73.13
2019-04-03T07:03:03.884Z,67.50
2019-04-03T07:04:02.122Z,67.50
2019-04-03T07:05:02.958Z,73.13
2019-04-03T07:06:02.286Z,73.13
2019-04-03T07:07:02.246Z,73.13
2019-04-03T07:08:04.411Z,73.13
2019-04-03T07:09:04.853Z,73.13
2019-04-03T07:10:04.195Z,67.50
2019-04-03T07:11:02.333Z,67.50
2019-04-03T07:12:02.365Z,67.50
2019-04-03T07:13:02.399Z,56.25
2019-04-03T07:14:02.628Z,50.63
2019-04-03T07:15:02.456Z,45.00
2019-04-03T07:16:02.722Z,45.00
2019-04-03T07:17:05.161Z,50.63
2019-04-03T07:18:05.549Z,56.25
2019-04-03T07:19:02.576Z,50.63
2019-04-03T07:20:12.464Z,45.00
2019-04-03T07:21:02.673Z,39.38
2019-04-03T07:22:02.666Z,45.00
2019-04-03T07:23:02.699Z,50.63
2019-04-03T07:24:02.726Z,56.25
2019-04-03T07:25:03.825Z,56.25
2019-04-03T07:26:04.709Z,67.50
2019-04-03T07:27:02.834Z,78.75
2019-04-03T07:28:02.934Z,101.25
2019-04-03T07:29:02.877Z,123.75
2019-04-03T07:30:02.908Z,146.25
2019-04-03T07:31:03.125Z,157.50
2019-04-03T07:32:02.976Z,157.50
2019-04-03T07:33:05.585Z,135.00
2019-04-03T07:34:03.682Z,129.38
2019-04-03T07:35:07.580Z,129.38
2019-04-03T07:36:03.089Z,123.75
2019-04-03T07:37:03.178Z,129.38
2019-04-03T07:38:03.148Z,129.38
2019-04-03T07:39:03.184Z,129.38
2019-04-03T07:40:03.337Z,118.13
2019-04-03T07:41:03.241Z,106.88
2019-04-03T07:42:03.271Z,90.00
2019-04-03T07:43:03.300Z,78.75
2019-04-03T07:44:03.329Z,78.75
2019-04-03T07:45:03.358Z,90.00
2019-04-03T07:46:03.943Z,95.63
2019-04-03T07:47:04.599Z,95.63
2019-04-03T07:48:05.998Z,95.63
2019-04-03T07:49:03.499Z,90.00
2019-04-03T07:50:03.518Z,90.00
2019-04-03T07:51:03.543Z,90.00
2019-04-03T07:52:03.579Z,90.00
2019-04-03T07:53:03.602Z,90.00
2019-04-03T07:54:04.832Z,95.63
2019-04-03T07:55:03.661Z,101.25
2019-04-03T07:56:03.959Z,101.25
2019-04-03T07:57:03.968Z,101.25
2019-04-03T07:58:03.938Z,101.25
2019-04-03T07:59:04.183Z,106.88
2019-04-03T08:00:06.187Z,106.88
2019-04-03T08:01:03.846Z,112.50
2019-04-03T08:02:03.879Z,123.75
2019-04-03T08:03:03.903Z,135.00
2019-04-03T08:04:03.936Z,163.13
2019-04-03T08:05:03.965Z,180.00
2019-04-03T08:06:04.523Z,191.25
2019-04-03T08:07:04.030Z,191.25
2019-04-03T08:08:04.304Z,191.25
2019-04-03T08:09:08.824Z,191.25
2019-04-03T08:10:04.116Z,180.00
2019-04-03T08:11:04.152Z,174.38
2019-04-03T08:12:04.595Z,174.38
2019-04-03T08:13:05.008Z,191.25
2019-04-03T08:14:04.237Z,196.88
2019-04-03T08:15:04.266Z,208.13
2019-04-03T08:16:04.298Z,208.13
2019-04-03T08:17:04.463Z,191.25
2019-04-03T08:18:04.360Z,151.88
2019-04-03T08:19:04.389Z,129.38
2019-04-03T08:20:04.419Z,112.50
2019-04-03T08:21:04.452Z,106.88
2019-04-03T08:22:04.791Z,101.25
2019-04-03T08:23:05.654Z,106.88
2019-04-03T08:24:06.002Z,123.75
2019-04-03T08:25:04.576Z,135.00
2019-04-03T08:26:04.908Z,135.00
2019-04-03T08:27:07.467Z,135.00
2019-04-03T08:28:04.667Z,146.25
2019-04-03T08:29:04.700Z,157.50
2019-04-03T08:30:07.330Z,157.50
2019-04-03T08:31:04.808Z,135.00
2019-04-03T08:32:04.880Z,123.75
2019-04-03T08:33:15.111Z,123.75
2019-04-03T08:34:14.617Z,118.13
2019-04-03T08:35:04.977Z,112.50
2019-04-03T08:36:07.087Z,112.50
2019-04-03T08:37:04.942Z,135.00
2019-04-03T08:38:05.350Z,151.88
2019-04-03T08:39:05.005Z,168.75
2019-04-03T08:40:05.035Z,157.50
2019-04-03T08:41:05.264Z,146.25
2019-04-03T08:42:05.100Z,151.88
2019-04-03T08:43:05.128Z,140.63
2019-04-03T08:44:07.978Z,123.75
2019-04-03T08:45:06.866Z,106.88
2019-04-03T08:46:05.384Z,95.63
2019-04-03T08:47:05.481Z,84.38
2019-04-03T08:48:06.410Z,73.13
2019-04-03T08:49:05.313Z,73.13
2019-04-03T08:50:05.343Z,73.13
2019-04-03T08:51:05.373Z,67.50
2019-04-03T08:52:06.136Z,78.75
2019-04-03T08:53:05.842Z,95.63
2019-04-03T08:54:05.471Z,95.63
2019-04-03T08:55:05.498Z,106.88
2019-04-03T08:56:05.700Z,106.88
2019-04-03T08:57:05.559Z,118.13
2019-04-03T08:58:05.623Z,135.00
2019-04-03T08:59:05.873Z,168.75
2019-04-03T09:00:05.651Z,180.00
2019-04-03T09:01:05.684Z,208.13
2019-04-03T09:02:07.722Z,185.63
2019-04-03T09:03:05.906Z,151.88
2019-04-03T09:04:05.774Z,129.38
2019-04-03T09:05:05.805Z,129.38
2019-04-03T09:06:05.838Z,106.88
2019-04-03T09:07:05.868Z,84.38
2019-04-03T09:08:05.899Z,73.13
2019-04-03T09:09:06.042Z,73.13
2019-04-03T09:10:05.961Z,73.13
2019-04-03T09:11:06.083Z,73.13
2019-04-03T09:12:07.279Z,67.50
2019-04-03T09:13:16.886Z,56.25
2019-04-03T09:14:06.085Z,50.63
2019-04-03T09:15:06.382Z,39.38
2019-04-03T09:16:06.147Z,33.75
2019-04-03T09:17:06.294Z,33.75
2019-04-03T09:18:06.917Z,39.38
2019-04-03T09:19:06.265Z,45.00
2019-04-03T09:20:06.539Z,50.63
2019-04-03T09:21:06.303Z,56.25
2019-04-03T09:22:06.385Z,61.88
2019-04-03T09:23:06.507Z,73.13
2019-04-03T09:24:06.392Z,67.50
2019-04-03T09:25:06.477Z,56.25
2019-04-03T09:26:06.531Z,56.25
2019-04-03T09:27:08.595Z,50.63
2019-04-03T09:28:06.515Z,50.63
2019-04-03T09:29:06.847Z,50.63
2019-04-03T09:30:06.574Z,50.63
2019-04-03T09:31:06.737Z,56.25
2019-04-03T09:32:06.847Z,61.88
2019-04-03T09:33:06.711Z,67.50
2019-04-03T09:34:06.717Z,78.75
2019-04-03T09:35:06.725Z,101.25
2019-04-03T09:36:06.756Z,112.50
2019-04-03T09:37:07.193Z,135.00
2019-04-03T09:38:08.978Z,180.00
2019-04-03T09:39:06.859Z,180.00
2019-04-03T09:40:07.242Z,202.50
2019-04-03T09:41:06.908Z,213.75
2019-04-03T09:42:06.954Z,225.00
2019-04-03T09:43:07.175Z,275.63
2019-04-03T09:44:06.995Z,292.50
2019-04-03T09:45:07.024Z,292.50
2019-04-03T09:46:07.057Z,298.13
2019-04-03T09:47:07.312Z,309.38
2019-04-03T09:48:07.116Z,298.13
2019-04-03T09:49:07.619Z,202.50
2019-04-03T09:50:07.481Z,146.25
2019-04-03T09:51:09.629Z,123.75
2019-04-03T09:52:07.235Z,106.88
2019-04-03T09:53:07.264Z,95.63
2019-04-03T09:54:07.296Z,95.63
2019-04-03T09:55:07.329Z,95.63
2019-04-03T09:56:08.451Z,101.25
2019-04-03T09:57:07.654Z,101.25
2019-04-03T09:58:07.416Z,90.00
2019-04-03T09:59:08.119Z,78.75
2019-04-03T10:00:09.525Z,67.50
2019-04-03T10:01:07.506Z,67.50
2019-04-03T10:02:07.536Z,78.75
2019-04-03T10:03:07.566Z,101.25
2019-04-03T10:04:07.871Z,118.13
2019-04-03T10:05:07.625Z,123.75
2019-04-03T10:06:07.657Z,123.75
2019-04-03T10:07:07.687Z,106.88
2019-04-03T10:08:08.910Z,101.25
2019-04-03T10:09:07.747Z,95.63
2019-04-03T10:10:07.778Z,90.00
2019-04-03T10:11:08.245Z,90.00
2019-04-03T10:12:07.840Z,95.63
2019-04-03T10:13:07.865Z,95.63
2019-04-03T10:14:07.897Z,84.38
2019-04-03T10:15:07.924Z,78.75
2019-04-03T10:16:08.148Z,73.13
2019-04-03T10:17:08.449Z,73.13
2019-04-03T10:18:09.588Z,73.13
2019-04-03T10:19:08.049Z,73.13
2019-04-03T10:20:08.076Z,73.13
2019-04-03T10:21:08.107Z,84.38
2019-04-03T10:22:08.135Z,73.13
2019-04-03T10:23:08.164Z,61.88
2019-04-03T10:24:08.194Z,50.63
2019-04-03T10:25:08.267Z,56.25
2019-04-03T10:26:09.470Z,67.50
2019-04-03T10:27:10.719Z,78.75
2019-04-03T10:28:08.314Z,90.00
2019-04-03T10:29:08.354Z,95.63
2019-04-03T10:30:08.487Z,95.63
2019-04-03T10:31:08.403Z,101.25
2019-04-03T10:32:08.472Z,106.88
2019-04-03T10:33:08.772Z,95.63
2019-04-03T10:34:08.494Z,73.13
2019-04-03T10:35:09.112Z,67.50
2019-04-03T10:36:10.333Z,67.50
2019-04-03T10:37:08.584Z,67.50
2019-04-03T10:38:08.612Z,78.75
2019-04-03T10:39:08.644Z,90.00
2019-04-03T10:40:08.672Z,84.38
2019-04-03T10:41:10.968Z,90.00
2019-04-03T10:42:08.732Z,101.25
2019-04-03T10:43:08.763Z,106.88
2019-04-03T10:44:10.210Z,106.88
2019-04-03T10:45:08.820Z,112.50
2019-04-03T10:46:08.850Z,123.75
2019-04-03T10:47:08.986Z,140.63
2019-04-03T10:48:09.041Z,123.75
2019-04-03T10:49:08.941Z,106.88
2019-04-03T10:50:09.300Z,106.88
2019-04-03T10:51:09.707Z,95.63
2019-04-03T10:52:09.028Z,84.38
2019-04-03T10:53:09.061Z,78.75
2019-04-03T10:54:09.092Z,78.75
2019-04-03T10:55:09.189Z,84.38
2019-04-03T10:56:09.148Z,101.25
2019-04-03T10:57:09.177Z,112.50
2019-04-03T10:58:09.248Z,135.00
2019-04-03T10:59:12.886Z,146.25
2019-04-03T11:00:09.267Z,151.88
2019-04-03T11:01:09.297Z,163.13
2019-04-03T11:02:09.326Z,208.13
2019-04-03T11:03:09.481Z,225.00
2019-04-03T11:04:09.385Z,213.75
2019-04-03T11:05:09.415Z,185.63
2019-04-03T11:06:09.522Z,157.50
2019-04-03T11:07:09.475Z,151.88
2019-04-03T11:08:09.505Z,140.63
2019-04-03T11:09:10.203Z,118.13
2019-04-03T11:10:09.904Z,101.25
2019-04-03T11:11:09.596Z,90.00
2019-04-03T11:12:10.613Z,84.38
2019-04-03T11:13:09.653Z,78.75
2019-04-03T11:14:09.683Z,73.13
2019-04-03T11:15:11.550Z,78.75
2019-04-03T11:16:09.744Z,78.75
2019-04-03T11:17:09.776Z,73.13
2019-04-03T11:18:09.802Z,61.88
2019-04-03T11:19:10.197Z,67.50
2019-04-03T11:20:10.879Z,78.75
2019-04-03T11:21:12.181Z,67.50
2019-04-03T11:22:09.919Z,78.75
2019-04-03T11:23:09.948Z,101.25
2019-04-03T11:24:10.213Z,101.25
2019-04-03T11:25:14.012Z,106.88
2019-04-03T11:26:10.036Z,106.88
2019-04-03T11:27:10.233Z,106.88
2019-04-03T11:28:10.408Z,95.63
2019-04-03T11:29:10.563Z,90.00
2019-04-03T11:30:11.906Z,84.38
2019-04-03T11:31:10.184Z,84.38
2019-04-03T11:32:10.213Z,90.00
2019-04-03T11:33:11.399Z,106.88
2019-04-03T11:34:10.555Z,123.75
2019-04-03T11:35:10.585Z,135.00
2019-04-03T11:36:10.329Z,129.38
2019-04-03T11:37:10.766Z,118.13
2019-04-03T11:38:14.079Z,112.50
2019-04-03T11:39:14.794Z,123.75
2019-04-03T11:40:10.582Z,123.75
2019-04-03T11:41:14.495Z,123.75
2019-04-03T11:42:22.491Z,112.50
2019-04-03T11:43:10.531Z,101.25
2019-04-03T11:44:10.561Z,101.25
2019-04-03T11:45:10.751Z,101.25
2019-04-03T11:46:10.663Z,101.25
2019-04-03T11:47:12.361Z,101.25
2019-04-03T11:48:10.678Z,106.88
2019-04-03T11:49:10.707Z,95.63
2019-04-03T11:50:10.737Z,90.00
2019-04-03T11:51:10.904Z,84.38
2019-04-03T11:52:10.839Z,78.75
2019-04-03T11:53:10.823Z,78.75
2019-04-03T11:54:10.853Z,73.13
2019-04-03T11:55:11.232Z,78.75
2019-04-03T11:56:13.126Z,78.75
2019-04-03T11:57:10.939Z,78.75
2019-04-03T11:58:10.968Z,84.38
2019-04-03T11:59:10.996Z,90.00
2019-04-03T12:00:11.077Z,95.63
2019-04-03T12:01:11.055Z,95.63
2019-04-03T12:02:11.084Z,95.63
2019-04-03T12:03:12.114Z,101.25
2019-04-03T12:04:12.797Z,106.88
2019-04-03T12:05:11.170Z,112.50
2019-04-03T12:06:11.219Z,112.50
2019-04-03T12:07:11.228Z,112.50
2019-04-03T12:08:12.599Z,112.50
2019-04-03T12:09:13.994Z,112.50
2019-04-03T12:10:11.377Z,118.13
2019-04-03T12:11:11.563Z,123.75
2019-04-03T12:12:11.373Z,112.50
2019-04-03T12:13:13.590Z,106.88
2019-04-03T12:14:11.689Z,112.50
2019-04-03T12:15:11.874Z,129.38
2019-04-03T12:16:11.650Z,146.25
2019-04-03T12:17:11.519Z,157.50
2019-04-03T12:18:11.778Z,174.38
2019-04-03T12:19:11.740Z,185.63
2019-04-03T12:20:54.201Z,151.88
2019-04-03T12:21:54.368Z,123.75
2019-04-03T12:22:55.194Z,106.88
2019-04-03T12:23:54.379Z,95.63
2019-04-03T12:24:54.317Z,95.63
2019-04-03T12:25:54.345Z,101.25
2019-04-03T12:26:55.766Z,106.88
2019-04-03T12:27:54.598Z,106.88
2019-04-03T12:28:54.831Z,106.88
2019-04-03T12:29:55.650Z,112.50
2019-04-03T12:30:54.852Z,123.75
2019-04-03T12:31:54.516Z,135.00
2019-04-03T12:32:54.721Z,146.25
2019-04-03T12:33:59.046Z,140.63
2019-04-03T12:34:54.604Z,140.63
2019-04-03T12:35:54.635Z,157.50
2019-04-03T12:36:54.885Z,151.88
2019-04-03T12:37:54.690Z,146.25
2019-04-03T12:38:56.197Z,135.00
2019-04-03T12:39:54.745Z,129.38
2019-04-03T12:40:54.779Z,129.38
2019-04-03T12:41:54.957Z,123.75
2019-04-03T12:42:54.832Z,118.13
2019-04-03T12:43:54.858Z,118.13
2019-04-03T12:44:55.697Z,123.75
2019-04-03T12:45:56.158Z,123.75
2019-04-03T12:46:54.947Z,118.13
2019-04-03T12:47:54.973Z,118.13
2019-04-03T12:48:55.319Z,112.50
2019-04-03T12:49:55.196Z,101.25
2019-04-03T12:50:55.062Z,90.00
2019-04-03T12:51:55.104Z,84.38
2019-04-03T12:52:55.115Z,84.38
2019-04-03T12:53:55.144Z,84.38
2019-04-03T12:54:55.173Z,78.75
2019-04-03T12:55:56.624Z,84.38
2019-04-03T12:56:55.228Z,84.38
2019-04-03T12:57:55.301Z,84.38
2019-04-03T12:58:55.359Z,84.38